createdAt,value
2019-02-21T00:03:23.851Z,40.33
2019-02-21T00:08:29.308Z,41.18
2019-02-21T00:13:34.934Z,38.40
2019-02-21T00:18:40.632Z,34.58
2019-02-21T00:23:46.028Z,42.08
2019-02-21T00:28:51.552Z,40.03
2019-02-21T00:33:57.055Z,35.92
2019-02-21T00:39:02.784Z,38.28
2019-02-21T00:44:10.304Z,35.58
2019-02-21T00:49:15.926Z,34.30
2019-02-21T00:54:21.908Z,36.45
2019-02-21T00:59:27.440Z,37.10
2019-02-21T01:04:32.976Z,30.52
2019-02-21T01:09:38.437Z,36.73
2019-02-21T01:14:43.882Z,31.75
2019-02-21T01:19:49.415Z,38.95
2019-02-21T01:24:54.935Z,33.63
2019-02-21T01:30:00.543Z,37.23
2019-02-21T01:35:07.071Z,37.30
2019-02-21T01:40:12.747Z,40.00
2019-02-21T01:45:18.468Z,39.08
2019-02-21T01:50:23.988Z,38.13
2019-02-21T01:55:29.513Z,38.25
2019-02-21T02:00:35.056Z,40.58
2019-02-21T02:05:40.549Z,39.73
2019-02-21T02:10:46.189Z,38.90
2019-02-21T02:15:51.762Z,44.55
2019-02-21T02:20:57.293Z,41.68
2019-02-21T02:26:02.746Z,40.70
2019-02-21T02:31:21.590Z,35.55
2019-02-21T02:36:15.493Z,37.48
2019-02-21T02:41:22.107Z,42.10
2019-02-21T02:46:27.617Z,39.18
2019-02-21T02:51:33.089Z,37.40
2019-02-21T02:56:38.579Z,39.98
2019-02-21T03:01:44.040Z,36.35
2019-02-21T03:06:49.558Z,38.23
2019-02-21T03:11:56.095Z,36.77
2019-02-21T03:17:01.615Z,46.70
2019-02-21T03:22:07.145Z,38.67
2019-02-21T03:27:12.610Z,39.40
2019-02-21T03:32:18.074Z,37.78
2019-02-21T03:37:23.613Z,39.65
2019-02-21T03:42:29.141Z,37.83
2019-02-21T03:47:34.815Z,42.73
2019-02-21T03:52:40.267Z,39.67
2019-02-21T03:57:45.872Z,40.92
2019-02-21T04:02:51.470Z,41.20
2019-02-21T04:07:57.027Z,43.65
2019-02-21T04:13:02.927Z,42.93
2019-02-21T04:18:08.621Z,38.73
2019-02-21T04:23:14.106Z,35.75
2019-02-21T04:28:19.582Z,37.23
2019-02-21T04:33:25.082Z,39.23
2019-02-21T04:38:30.541Z,37.67
2019-02-21T04:43:36.076Z,35.52
2019-02-21T04:48:41.505Z,42.40
2019-02-21T04:53:46.971Z,33.60
2019-02-21T04:58:54.281Z,38.95
2019-02-21T05:03:59.753Z,38.23
2019-02-21T05:09:07.526Z,36.65
2019-02-21T05:14:12.937Z,39.10
2019-02-21T05:19:18.478Z,36.45
2019-02-21T05:24:23.936Z,36.93
2019-02-21T05:29:29.385Z,43.95
2019-02-21T05:34:42.558Z,48.23
2019-02-21T05:39:55.472Z,46.33
2019-02-21T05:45:14.385Z,42.55
2019-02-21T05:50:27.444Z,39.65
2019-02-21T05:55:40.573Z,48.35
2019-02-21T06:00:53.360Z,40.43
2019-02-21T06:06:00.445Z,51.92
2019-02-21T06:11:23.876Z,36.08
2019-02-21T06:16:32.756Z,33.50
2019-02-21T06:21:51.880Z,46.28
2019-02-21T06:27:00.845Z,37.10
2019-02-21T06:32:13.804Z,37.53
2019-02-21T06:37:14.760Z,40.78
2019-02-21T06:42:20.238Z,46.05
2019-02-21T06:47:26.853Z,50.28
2019-02-21T06:52:32.333Z,63.30
2019-02-21T06:57:37.842Z,47.23
2019-02-21T07:02:43.365Z,47.00
2019-02-21T07:07:48.912Z,41.10
2019-02-21T07:12:55.195Z,35.00
2019-02-21T07:18:00.729Z,48.65
2019-02-21T07:23:06.247Z,43.65
2019-02-21T07:28:15.608Z,66.17
2019-02-21T07:33:27.656Z,46.50
2019-02-21T07:38:25.943Z,50.20
2019-02-21T07:43:31.397Z,36.17
2019-02-21T07:48:36.922Z,33.15
2019-02-21T07:53:43.522Z,32.58
2019-02-21T07:58:48.987Z,31.65
2019-02-21T08:03:54.764Z,31.90
2019-02-21T08:09:00.232Z,38.73
2019-02-21T08:14:05.833Z,36.48
2019-02-21T08:19:11.334Z,33.92
2019-02-21T08:24:16.815Z,31.73
2019-02-21T08:29:22.319Z,33.30
2019-02-21T08:34:29.671Z,38.73
2019-02-21T08:39:35.146Z,35.40
2019-02-21T08:44:40.589Z,32.33
2019-02-21T08:49:46.049Z,39.55
2019-02-21T08:54:59.854Z,32.83
2019-02-21T08:59:58.649Z,35.63
2019-02-21T09:05:04.757Z,36.28
2019-02-21T09:10:12.242Z,33.33
2019-02-21T09:15:17.851Z,30.75
2019-02-21T09:20:24.284Z,35.55
2019-02-21T09:25:29.979Z,28.10
2019-02-21T09:30:35.605Z,29.80
2019-02-21T09:35:41.050Z,33.73
2019-02-21T09:40:46.575Z,24.77
2019-02-21T09:45:52.355Z,24.80
2019-02-21T09:50:58.161Z,30.65
2019-02-21T09:56:03.621Z,28.40
2019-02-21T10:01:09.144Z,32.63
2019-02-21T10:06:14.693Z,35.80
2019-02-21T10:11:20.286Z,38.23
2019-02-21T10:16:26.196Z,38.33
2019-02-21T10:21:32.192Z,40.23
2019-02-21T10:26:37.791Z,43.08
2019-02-21T10:31:43.404Z,40.33
2019-02-21T10:36:49.003Z,35.48
2019-02-21T10:41:54.625Z,42.78
2019-02-21T10:47:00.427Z,45.25
2019-02-21T10:52:06.035Z,37.53
2019-02-21T10:57:12.556Z,42.85
2019-02-21T11:02:18.151Z,46.48
2019-02-21T11:07:23.588Z,49.13
2019-02-21T11:12:29.056Z,35.88
2019-02-21T11:17:34.664Z,37.75
2019-02-21T11:22:40.331Z,39.42
2019-02-21T11:27:45.833Z,51.35
2019-02-21T11:32:51.717Z,39.75
2019-02-21T11:37:57.449Z,41.28
2019-02-21T11:43:02.997Z,34.48
2019-02-21T11:48:09.358Z,37.95
2019-02-21T11:53:15.179Z,39.55
2019-02-21T11:58:20.852Z,42.85
2019-02-21T12:03:26.534Z,41.85
2019-02-21T12:08:32.067Z,24.47
2019-02-21T12:13:37.621Z,26.23
2019-02-21T12:18:43.075Z,35.60
2019-02-21T12:23:48.964Z,40.67
2019-02-21T12:28:54.425Z,42.62
2019-02-21T12:33:59.955Z,50.75
2019-02-21T12:39:06.767Z,38.53
2019-02-21T12:44:13.827Z,46.88
2019-02-21T12:49:19.267Z,45.85
2019-02-21T12:54:24.918Z,58.60
2019-02-21T12:59:30.371Z,58.38
2019-02-21T13:04:35.839Z,52.27
2019-02-21T13:09:41.296Z,54.38
2019-02-21T13:14:46.761Z,47.75
2019-02-21T13:19:52.282Z,37.58
2019-02-21T13:24:57.883Z,39.50
2019-02-21T13:30:04.555Z,37.98
2019-02-21T13:35:10.721Z,43.87
2019-02-21T13:40:16.925Z,43.08
2019-02-21T13:45:22.545Z,45.20
2019-02-21T13:50:28.059Z,50.50
2019-02-21T13:55:33.577Z,50.88
2019-02-21T14:00:39.113Z,50.28
2019-02-21T14:05:44.638Z,37.53
2019-02-21T14:10:50.163Z,47.85
2019-02-21T14:15:55.708Z,41.35
2019-02-21T14:21:01.174Z,46.25
2019-02-21T14:26:07.044Z,43.52
2019-02-21T14:31:12.720Z,48.08
2019-02-21T14:36:19.400Z,53.17
2019-02-21T14:41:24.988Z,46.77
2019-02-21T14:46:30.528Z,59.48
2019-02-21T14:51:36.049Z,51.28
2019-02-21T14:56:41.585Z,59.73
2019-02-21T15:01:47.115Z,54.55
2019-02-21T15:06:52.712Z,55.03
2019-02-21T15:11:58.278Z,50.00
2019-02-21T15:17:04.080Z,57.13
2019-02-21T15:22:09.679Z,51.68
2019-02-21T15:27:15.291Z,44.75
2019-02-21T15:32:20.755Z,48.48
2019-02-21T15:37:26.275Z,47.08
2019-02-21T15:42:31.801Z,48.23
2019-02-21T15:47:37.291Z,53.73
2019-02-21T15:52:45.077Z,39.38
2019-02-21T15:57:50.545Z,53.38
2019-02-21T16:02:56.140Z,57.65
2019-02-21T16:08:01.593Z,51.20
2019-02-21T16:13:07.313Z,51.83
2019-02-21T16:18:13.960Z,47.80
2019-02-21T16:23:19.666Z,42.80
2019-02-21T16:28:25.105Z,40.83
2019-02-21T16:33:30.579Z,39.60
2019-02-21T16:38:36.173Z,31.60
2019-02-21T16:43:43.166Z,28.23
2019-02-21T16:48:48.620Z,28.70
2019-02-21T16:53:54.081Z,26.87
2019-02-21T16:58:59.532Z,22.70
2019-02-21T17:04:05.141Z,23.00
2019-02-21T17:09:10.918Z,19.75
2019-02-21T17:14:16.447Z,18.50
2019-02-21T17:19:21.902Z,22.02
2019-02-21T17:24:27.391Z,21.12
2019-02-21T17:29:32.848Z,26.95
2019-02-21T17:34:38.331Z,35.13
2019-02-21T17:39:43.796Z,33.53
2019-02-21T17:44:49.249Z,31.42
2019-02-21T17:49:55.123Z,26.70
2019-02-21T17:55:00.579Z,31.33
2019-02-21T18:00:27.595Z,34.98
2019-02-21T18:05:33.261Z,34.20
2019-02-21T18:10:38.770Z,29.55
2019-02-21T18:15:44.259Z,35.05
2019-02-21T18:20:49.710Z,30.30
2019-02-21T18:25:58.380Z,33.60
2019-02-21T18:31:04.150Z,34.27
2019-02-21T18:36:09.729Z,29.42
2019-02-21T18:41:15.224Z,32.30
2019-02-21T18:46:20.673Z,30.15
2019-02-21T18:51:26.208Z,30.05
2019-02-21T18:56:31.693Z,35.25
2019-02-21T19:01:37.162Z,33.20
2019-02-21T19:06:42.749Z,29.00
2019-02-21T19:11:48.301Z,38.85
2019-02-21T19:16:53.836Z,36.65
2019-02-21T19:21:59.440Z,40.10
2019-02-21T19:27:05.036Z,45.60
2019-02-21T19:32:11.601Z,46.42
2019-02-21T19:37:17.128Z,54.77
2019-02-21T19:42:22.827Z,54.30
2019-02-21T19:47:28.421Z,53.60
2019-02-21T19:52:33.956Z,52.33
2019-02-21T19:57:39.397Z,56.18
2019-02-21T20:02:56.639Z,55.25
2019-02-21T20:08:08.773Z,54.45
2019-02-21T20:13:10.695Z,45.90
2019-02-21T20:18:16.287Z,46.08
2019-02-21T20:23:21.833Z,42.30
2019-02-21T20:28:27.432Z,46.30
2019-02-21T20:33:33.025Z,44.50
2019-02-21T20:38:38.725Z,44.20
2019-02-21T20:43:44.168Z,43.00
2019-02-21T20:48:52.436Z,45.95
2019-02-21T20:53:58.262Z,44.23
2019-02-21T20:59:03.905Z,44.55
2019-02-21T21:04:09.444Z,42.62
2019-02-21T21:09:15.233Z,39.33
2019-02-21T21:14:20.760Z,35.55
2019-02-21T21:19:26.284Z,44.50
2019-02-21T21:24:31.801Z,43.33
2019-02-21T21:29:37.281Z,37.42
2019-02-21T21:34:44.258Z,40.48
2019-02-21T21:39:49.883Z,37.23
2019-02-21T21:44:55.353Z,43.85
2019-02-21T21:50:00.950Z,37.58
2019-02-21T21:55:06.625Z,38.00
2019-02-21T22:00:17.774Z,40.90
2019-02-21T22:05:22.379Z,43.70
2019-02-21T22:10:28.030Z,31.93
2019-02-21T22:15:33.689Z,40.95
2019-02-21T22:20:39.298Z,34.10
2019-02-21T22:25:44.780Z,35.28
2019-02-21T22:30:50.296Z,29.82
2019-02-21T22:35:57.661Z,38.50
2019-02-21T22:41:03.281Z,32.30
2019-02-21T22:46:09.081Z,31.65
2019-02-21T22:51:14.616Z,34.83
2019-02-21T22:56:20.306Z,31.10
2019-02-21T23:01:28.650Z,29.57
2019-02-21T23:06:43.164Z,27.07
2019-02-21T23:11:48.685Z,26.68
2019-02-21T23:16:54.213Z,26.23
2019-02-21T23:21:59.711Z,25.37
2019-02-21T23:27:05.911Z,41.37
2019-02-21T23:32:11.447Z,37.98
2019-02-21T23:37:17.015Z,23.95
2019-02-21T23:42:22.531Z,22.02
2019-02-21T23:47:29.046Z,22.10
2019-02-21T23:52:34.508Z,21.73
2019-02-21T23:57:39.972Z,27.75
